Time;durP1;ratioP1;P1;durP2;ratioP2;P2;SDS_P1;SDS_P2;PMS_P1;PMS_P2;Temp;Humidity;BMP_temperature;BMP_pressure;BME280_temperature;BME280_humidity;BME280_pressure;Samples;Min_cycle;Max_cycle;Signal;HPM_P1;HPM_P2
2022/01/27 00:03:17;;;;;;;41.83;23.67;;;5.20;99.90;;;;;;5044083;28;20045;-91
2022/01/27 00:05:51;;;;;;;42.38;25.05;;;5.20;99.90;;;;;;5029523;28;20089;-89
2022/01/27 00:08:22;;;;;;;43.47;24.52;;;5.20;99.90;;;;;;5025994;28;20037;-92
2022/01/27 00:13:15;;;;;;;44.45;26.35;;;5.20;99.90;;;;;;5044816;28;20044;-92
2022/01/27 00:15:42;;;;;;;41.58;23.83;;;5.20;99.90;;;;;;5030872;28;20041;-93
2022/01/27 00:18:30;;;;;;;44.30;26.70;;;5.20;99.90;;;;;;5029272;28;20044;-92
2022/01/27 00:20:54;;;;;;;46.65;27.38;;;5.30;99.90;;;;;;5041897;28;20044;-92
2022/01/27 00:23:19;;;;;;;43.15;25.08;;;5.30;99.90;;;;;;5024663;28;20116;-91
2022/01/27 00:25:45;;;;;;;45.72;26.00;;;5.30;99.90;;;;;;5021384;28;20033;-91
2022/01/27 00:28:10;;;;;;;44.38;25.60;;;5.30;99.90;;;;;;5043765;28;20033;-92
2022/01/27 00:30:38;;;;;;;47.60;27.85;;;5.30;99.90;;;;;;5026650;28;20045;-91
2022/01/27 00:33:04;;;;;;;43.30;26.05;;;5.30;99.90;;;;;;5043189;28;20091;-91
2022/01/27 00:35:30;;;;;;;45.55;26.63;;;5.30;99.90;;;;;;5029535;28;20461;-93
2022/01/27 00:37:56;;;;;;;46.03;27.17;;;5.30;99.90;;;;;;5026247;28;20037;-93
2022/01/27 00:40:22;;;;;;;46.75;26.33;;;5.30;99.90;;;;;;5035582;28;20072;-92
2022/01/27 00:42:48;;;;;;;42.58;27.33;;;5.30;99.90;;;;;;5057859;28;20029;-92
2022/01/27 00:45:14;;;;;;;43.25;27.08;;;5.30;99.90;;;;;;5055480;28;20506;-93
2022/01/27 00:47:40;;;;;;;46.33;27.25;;;5.30;99.90;;;;;;5053512;28;20036;-93
2022/01/27 00:50:06;;;;;;;49.97;28.67;;;5.30;99.90;;;;;;5037526;28;20048;-92
2022/01/27 00:52:40;;;;;;;45.47;26.42;;;5.30;99.90;;;;;;5042163;28;20045;-92
2022/01/27 00:55:08;;;;;;;44.50;26.70;;;5.30;99.90;;;;;;5056551;28;20075;-92
2022/01/27 00:57:47;;;;;;;40.38;24.98;;;5.30;99.90;;;;;;5054087;28;20043;-93
2022/01/27 01:00:17;;;;;;;44.15;26.05;;;5.30;99.90;;;;;;5055938;28;20101;-93
2022/01/27 01:02:54;;;;;;;43.30;25.15;;;5.30;99.90;;;;;;5039860;28;20044;-93
2022/01/27 01:11:14;;;;;;;43.75;26.35;;;5.30;99.90;;;;;;5054267;28;20041;-93
2022/01/27 01:14:22;;;;;;;45.97;25.20;;;5.30;99.90;;;;;;5053558;28;20110;-91
2022/01/27 01:21:57;;;;;;;41.25;24.10;;;5.30;99.90;;;;;;5056150;28;20049;-92
2022/01/27 01:30:08;;;;;;;39.13;24.67;;;5.30;99.90;;;;;;5059712;28;20044;-93
2022/01/27 01:32:50;;;;;;;38.90;22.27;;;5.30;99.90;;;;;;5059714;28;20053;-93
2022/01/27 01:35:17;;;;;;;38.33;22.58;;;5.30;99.90;;;;;;5057603;28;20052;-92
2022/01/27 01:37:44;;;;;;;38.33;23.40;;;5.30;99.90;;;;;;5060289;28;20065;-91
2022/01/27 01:40:16;;;;;;;38.85;23.60;;;5.30;99.90;;;;;;5058576;28;20171;-92
2022/01/27 01:42:42;;;;;;;37.80;21.33;;;5.30;99.90;;;;;;5039409;28;20048;-93
2022/01/27 01:45:11;;;;;;;31.33;19.15;;;5.30;99.90;;;;;;5059384;28;20062;-93
2022/01/27 01:47:37;;;;;;;39.97;25.42;;;5.30;99.90;;;;;;5040583;28;20041;-93
2022/01/27 01:50:05;;;;;;;39.45;24.48;;;5.30;99.90;;;;;;5060049;28;20409;-92
2022/01/27 01:52:31;;;;;;;32.50;21.50;;;5.30;99.90;;;;;;5039045;28;20041;-92
2022/01/27 01:54:57;;;;;;;35.97;22.55;;;5.30;99.90;;;;;;5058477;28;20490;-92
2022/01/27 01:57:23;;;;;;;41.72;24.70;;;5.30;99.90;;;;;;5056770;28;20073;-93
2022/01/27 01:59:49;;;;;;;36.03;22.83;;;5.30;99.90;;;;;;5042162;28;20044;-91
2022/01/27 02:02:15;;;;;;;39.67;23.60;;;5.30;99.90;;;;;;5039399;28;20033;-93
2022/01/27 02:04:42;;;;;;;39.13;21.98;;;5.30;99.90;;;;;;5040789;28;20037;-94
2022/01/27 02:07:22;;;;;;;34.25;21.15;;;5.30;99.90;;;;;;5057430;28;20059;-92
2022/01/27 02:10:08;;;;;;;40.05;24.75;;;5.30;99.90;;;;;;5042744;28;20090;-91
2022/01/27 02:18:07;;;;;;;35.97;23.02;;;5.40;99.90;;;;;;5062639;28;20076;-93
2022/01/27 02:20:35;;;;;;;36.22;23.48;;;5.40;99.90;;;;;;5057333;28;20044;-93
2022/01/27 02:23:02;;;;;;;34.65;22.27;;;5.40;99.90;;;;;;5062152;28;20041;-93
2022/01/27 02:25:28;;;;;;;39.58;23.02;;;5.40;99.90;;;;;;5061170;28;20037;-93
2022/01/27 02:27:55;;;;;;;38.40;24.58;;;5.40;99.90;;;;;;5059292;28;20044;-92
2022/01/27 02:30:22;;;;;;;35.80;22.30;;;5.40;99.90;;;;;;5039819;28;20462;-94
2022/01/27 02:32:51;;;;;;;38.55;24.02;;;5.40;99.90;;;;;;5059707;28;20045;-92
2022/01/27 02:35:17;;;;;;;39.33;23.33;;;5.40;99.90;;;;;;5062069;28;20422;-92
2022/01/27 02:37:42;;;;;;;42.15;23.08;;;5.40;99.90;;;;;;5059830;28;20076;-92
2022/01/27 02:40:10;;;;;;;36.72;23.55;;;5.40;99.90;;;;;;5042203;28;20175;-93
2022/01/27 02:42:37;;;;;;;41.90;25.42;;;5.40;99.90;;;;;;5059531;28;20115;-93
2022/01/27 02:45:12;;;;;;;38.97;23.83;;;5.40;99.90;;;;;;5055166;28;20430;-92
2022/01/27 02:47:38;;;;;;;40.33;23.67;;;5.40;99.90;;;;;;5059446;28;20499;-93
2022/01/27 02:50:06;;;;;;;39.30;24.67;;;5.40;99.90;;;;;;5063291;28;20075;-93
2022/01/27 02:52:32;;;;;;;36.50;24.08;;;5.40;99.90;;;;;;5060685;28;20091;-92
2022/01/27 02:54:58;;;;;;;41.55;23.95;;;5.50;99.90;;;;;;5058065;28;20037;-92
2022/01/27 02:57:24;;;;;;;38.35;23.35;;;5.50;99.90;;;;;;5040043;28;20076;-91
2022/01/27 02:59:51;;;;;;;35.28;21.75;;;5.50;99.90;;;;;;5038130;28;20041;-93
2022/01/27 03:02:17;;;;;;;38.83;22.15;;;5.50;99.90;;;;;;5061780;28;20052;-94
2022/01/27 03:04:43;;;;;;;43.13;23.85;;;5.50;99.90;;;;;;5061677;28;20037;-93
2022/01/27 03:07:08;;;;;;;38.45;22.13;;;5.50;99.90;;;;;;5062039;28;20120;-93
2022/01/27 03:09:35;;;;;;;37.22;20.73;;;5.50;99.90;;;;;;5057252;28;20048;-92
2022/01/27 03:12:11;;;;;;;38.45;22.27;;;5.50;99.90;;;;;;5060164;28;20168;-94
2022/01/27 03:14:39;;;;;;;37.53;20.38;;;5.50;99.90;;;;;;5060619;28;20052;-93
2022/01/27 03:17:06;;;;;;;36.90;22.17;;;5.60;99.90;;;;;;5043291;28;20041;-93
2022/01/27 03:19:32;;;;;;;33.03;20.05;;;5.60;99.90;;;;;;5041498;28;20087;-92
2022/01/27 03:22:01;;;;;;;40.67;22.77;;;5.60;99.90;;;;;;5057788;28;20033;-93
2022/01/27 03:24:26;;;;;;;31.38;18.70;;;5.60;99.90;;;;;;5042360;28;20112;-92
2022/01/27 03:26:54;;;;;;;34.47;21.25;;;5.60;99.90;;;;;;5039428;28;20040;-93
2022/01/27 03:29:20;;;;;;;36.25;22.45;;;5.60;99.90;;;;;;5058808;28;20573;-92
2022/01/27 03:31:46;;;;;;;36.00;21.50;;;5.60;99.90;;;;;;5039935;28;20072;-93
2022/01/27 03:34:13;;;;;;;33.28;19.40;;;5.60;99.90;;;;;;5061170;28;20069;-93
2022/01/27 03:36:39;;;;;;;31.52;19.90;;;5.70;99.90;;;;;;5043641;28;20064;-92
2022/01/27 03:39:07;;;;;;;36.75;22.80;;;5.70;99.90;;;;;;5058694;28;20040;-94
2022/01/27 03:41:35;;;;;;;38.05;22.83;;;5.70;99.90;;;;;;5041401;28;20083;-93
2022/01/27 03:44:02;;;;;;;35.85;21.20;;;5.70;99.90;;;;;;5041302;28;20078;-93
2022/01/27 03:46:27;;;;;;;31.85;20.02;;;5.70;99.90;;;;;;5057234;28;20040;-94
2022/01/27 03:48:53;;;;;;;41.10;22.70;;;5.70;99.90;;;;;;5058864;28;20521;-92
2022/01/27 03:51:18;;;;;;;34.47;19.33;;;5.70;99.90;;;;;;5060054;28;20041;-93
2022/01/27 03:53:44;;;;;;;31.80;20.63;;;5.70;99.90;;;;;;5059214;28;20041;-93
2022/01/27 03:56:10;;;;;;;36.90;21.15;;;5.70;99.90;;;;;;5041104;28;20037;-94
2022/01/27 03:58:36;;;;;;;32.72;21.00;;;5.70;99.90;;;;;;5060535;28;20108;-92
2022/01/27 04:01:05;;;;;;;31.08;20.40;;;5.70;99.90;;;;;;5058793;28;20045;-94
2022/01/27 04:03:34;;;;;;;36.13;21.08;;;5.70;99.90;;;;;;5043628;28;20037;-92
2022/01/27 04:06:09;;;;;;;34.28;21.95;;;5.70;99.90;;;;;;5061451;28;20044;-93
2022/01/27 04:08:37;;;;;;;37.78;21.42;;;5.70;99.90;;;;;;5060584;28;20040;-92
2022/01/27 04:11:08;;;;;;;36.45;21.23;;;5.60;99.90;;;;;;5043195;28;20044;-91
2022/01/27 04:13:35;;;;;;;35.03;19.90;;;5.60;99.90;;;;;;5054935;28;20037;-93
2022/01/27 04:16:00;;;;;;;38.35;22.50;;;5.60;99.90;;;;;;5044398;28;20052;-92
2022/01/27 04:18:27;;;;;;;35.38;22.73;;;5.60;99.90;;;;;;5042846;28;20037;-93
2022/01/27 04:20:53;;;;;;;35.40;22.42;;;5.60;99.90;;;;;;5043144;28;20045;-92
2022/01/27 04:23:19;;;;;;;34.85;20.25;;;5.60;99.90;;;;;;5042281;28;20041;-93
2022/01/27 04:25:45;;;;;;;40.42;23.02;;;5.60;99.90;;;;;;5059711;28;20041;-93
2022/01/27 04:28:14;;;;;;;35.40;21.23;;;5.60;99.90;;;;;;5059486;28;20036;-93
2022/01/27 04:30:40;;;;;;;37.63;22.00;;;5.70;99.90;;;;;;5042033;28;20155;-92
2022/01/27 04:33:07;;;;;;;37.38;21.80;;;5.70;99.90;;;;;;5060745;28;20061;-93
2022/01/27 04:35:38;;;;;;;32.42;19.10;;;5.70;99.90;;;;;;5040611;28;20044;-92
2022/01/27 04:40:46;;;;;;;33.47;20.70;;;5.70;99.90;;;;;;5059508;28;20078;-93
2022/01/27 04:45:49;;;;;;;40.88;22.23;;;5.70;99.90;;;;;;5061774;28;20098;-93
2022/01/27 04:48:18;;;;;;;40.00;21.85;;;5.70;99.90;;;;;;5054994;28;20091;-93
2022/01/27 04:50:44;;;;;;;36.95;21.73;;;5.80;99.90;;;;;;5060725;28;20048;-93
2022/01/27 04:53:20;;;;;;;35.28;18.60;;;5.80;99.90;;;;;;5042455;28;20045;-92
2022/01/27 04:55:46;;;;;;;29.95;18.05;;;5.80;99.90;;;;;;5043927;28;20045;-92
2022/01/27 04:58:16;;;;;;;37.50;21.88;;;5.80;99.90;;;;;;5040256;28;20136;-94
2022/01/27 05:00:42;;;;;;;32.75;20.58;;;5.80;99.90;;;;;;5058644;28;20048;-93
2022/01/27 05:03:17;;;;;;;31.98;19.13;;;5.90;99.90;;;;;;5051141;28;20041;-92
2022/01/27 05:05:42;;;;;;;36.03;18.88;;;5.80;99.90;;;;;;5059697;28;20067;-93
2022/01/27 05:08:16;;;;;;;36.85;21.98;;;5.80;99.90;;;;;;5040662;28;20037;-93
2022/01/27 05:10:43;;;;;;;38.42;21.92;;;5.90;99.90;;;;;;5037993;28;20410;-93
2022/01/27 05:13:14;;;;;;;36.72;21.80;;;5.90;99.90;;;;;;5057945;28;20045;-92
2022/01/27 05:15:44;;;;;;;38.47;20.10;;;5.90;99.90;;;;;;5045252;28;20041;-92
2022/01/27 05:18:11;;;;;;;36.67;21.92;;;5.90;99.90;;;;;;5038072;28;20098;-93
2022/01/27 05:20:37;;;;;;;35.47;19.70;;;5.90;99.90;;;;;;5044631;28;20038;-93
2022/01/27 05:23:02;;;;;;;36.17;20.27;;;5.90;99.90;;;;;;5056283;28;20402;-94
2022/01/27 05:25:28;;;;;;;33.78;18.67;;;5.90;99.90;;;;;;5041230;28;20461;-94
2022/01/27 05:27:54;;;;;;;31.95;19.95;;;5.90;99.90;;;;;;5058379;28;20044;-93
2022/01/27 05:30:19;;;;;;;37.25;21.48;;;5.90;99.90;;;;;;5041617;28;20064;-92
2022/01/27 05:32:45;;;;;;;34.22;20.48;;;5.90;99.90;;;;;;5053414;28;20051;-92
2022/01/27 05:35:11;;;;;;;38.67;22.42;;;5.90;99.90;;;;;;5056370;28;20041;-93
2022/01/27 05:37:36;;;;;;;33.35;21.05;;;5.90;99.90;;;;;;5055499;28;20038;-92
2022/01/27 05:40:02;;;;;;;37.50;19.27;;;5.90;99.90;;;;;;5059001;28;20086;-93
2022/01/27 05:42:28;;;;;;;33.15;20.55;;;5.90;99.90;;;;;;5038129;28;20079;-92
2022/01/27 05:44:54;;;;;;;37.53;22.75;;;5.90;99.90;;;;;;5037830;28;20037;-93
2022/01/27 05:47:19;;;;;;;35.20;19.83;;;5.90;99.90;;;;;;5054600;28;20116;-93
2022/01/27 05:49:45;;;;;;;34.35;19.77;;;5.90;99.90;;;;;;5058034;28;20048;-93
2022/01/27 05:52:11;;;;;;;31.48;19.05;;;5.90;99.90;;;;;;5058011;28;20124;-92
2022/01/27 05:54:36;;;;;;;33.30;19.33;;;5.90;99.90;;;;;;5056364;28;20086;-93
2022/01/27 05:57:02;;;;;;;31.55;18.10;;;6.00;99.90;;;;;;5056959;28;20101;-92
2022/01/27 05:59:28;;;;;;;40.30;20.58;;;6.00;99.90;;;;;;5057966;28;20037;-92
2022/01/27 06:01:53;;;;;;;35.00;19.73;;;6.00;99.90;;;;;;5051418;28;20037;-93
2022/01/27 06:04:19;;;;;;;35.08;18.85;;;6.00;99.90;;;;;;5053174;28;20037;-94
2022/01/27 06:06:45;;;;;;;35.85;19.80;;;6.00;99.90;;;;;;5051235;28;20044;-92
2022/01/27 06:09:10;;;;;;;33.20;20.05;;;6.00;99.90;;;;;;5053686;28;20048;-91
2022/01/27 06:11:36;;;;;;;32.08;19.00;;;6.00;99.90;;;;;;5060417;28;20421;-92
2022/01/27 06:14:02;;;;;;;36.97;20.52;;;6.10;99.90;;;;;;5061037;28;20051;-92
2022/01/27 06:16:27;;;;;;;33.72;19.05;;;6.10;99.90;;;;;;5061050;28;20041;-91
2022/01/27 06:18:53;;;;;;;42.70;21.17;;;6.10;99.90;;;;;;5043973;28;20037;-92
2022/01/27 06:21:19;;;;;;;37.90;19.85;;;6.10;99.90;;;;;;5061836;28;20041;-92
2022/01/27 06:23:44;;;;;;;32.67;19.83;;;6.10;99.90;;;;;;5061252;28;20036;-93
2022/01/27 06:26:10;;;;;;;35.13;18.75;;;6.10;99.90;;;;;;5061730;28;20041;-91
2022/01/27 06:28:36;;;;;;;35.03;19.20;;;6.10;99.90;;;;;;5045549;28;20092;-91
2022/01/27 06:31:01;;;;;;;40.80;22.02;;;6.10;99.90;;;;;;5060707;28;20552;-93
2022/01/27 06:33:27;;;;;;;34.33;19.50;;;6.10;99.90;;;;;;5038989;28;20042;-92
2022/01/27 06:35:53;;;;;;;37.28;19.33;;;6.10;99.90;;;;;;5054378;28;20066;-91
2022/01/27 06:38:18;;;;;;;40.55;21.88;;;6.10;99.90;;;;;;5052365;28;20399;-92
2022/01/27 06:40:44;;;;;;;41.42;23.45;;;6.10;99.90;;;;;;5046840;28;20060;-92
2022/01/27 06:43:16;;;;;;;37.55;20.10;;;6.10;99.90;;;;;;5049871;28;20091;-92
2022/01/27 06:45:41;;;;;;;39.88;22.58;;;6.10;99.90;;;;;;5063934;28;20041;-93
2022/01/27 06:48:07;;;;;;;38.53;21.17;;;6.10;99.90;;;;;;5047154;28;20044;-92
2022/01/27 06:50:36;;;;;;;41.53;21.35;;;6.00;99.90;;;;;;5066114;28;20060;-93
2022/01/27 06:53:02;;;;;;;35.22;20.75;;;6.10;99.90;;;;;;5047970;28;20041;-91
2022/01/27 06:55:28;;;;;;;42.30;20.27;;;6.10;99.90;;;;;;5045393;28;20486;-92
2022/01/27 06:57:53;;;;;;;36.08;21.27;;;6.10;99.90;;;;;;5062209;28;20047;-93
2022/01/27 07:00:19;;;;;;;40.78;22.30;;;6.00;99.90;;;;;;5063377;28;20041;-92
2022/01/27 07:02:45;;;;;;;38.42;21.08;;;6.10;99.90;;;;;;5060563;28;20044;-92
2022/01/27 07:05:14;;;;;;;34.38;18.98;;;6.10;99.90;;;;;;5062136;28;20490;-91
2022/01/27 07:07:40;;;;;;;37.15;20.13;;;6.10;99.90;;;;;;5060646;28;20044;-89
2022/01/27 07:10:06;;;;;;;38.35;19.73;;;6.10;99.90;;;;;;5061556;28;20045;-93
2022/01/27 07:12:31;;;;;;;35.50;20.58;;;6.10;99.90;;;;;;5045981;28;20058;-90
2022/01/27 07:14:58;;;;;;;38.22;21.70;;;6.10;99.90;;;;;;5045352;28;20132;-93
2022/01/27 07:17:23;;;;;;;32.17;17.10;;;6.20;99.90;;;;;;5043714;28;20064;-93
2022/01/27 07:19:49;;;;;;;37.78;20.02;;;6.20;99.90;;;;;;5065452;28;20037;-92
2022/01/27 07:22:15;;;;;;;36.80;19.30;;;6.20;99.90;;;;;;5062421;28;20063;-92
2022/01/27 07:24:40;;;;;;;37.30;20.70;;;6.20;99.90;;;;;;5045591;28;20043;-91
2022/01/27 07:27:06;;;;;;;34.40;17.60;;;6.30;99.90;;;;;;5046975;28;20045;-92
2022/01/27 07:29:32;;;;;;;34.67;19.20;;;6.30;99.90;;;;;;5043358;28;20045;-91
2022/01/27 07:31:58;;;;;;;37.10;20.90;;;6.30;99.90;;;;;;5061277;28;20063;-91
2022/01/27 07:34:23;;;;;;;29.95;16.15;;;6.30;99.90;;;;;;5059531;28;20068;-91
2022/01/27 07:36:54;;;;;;;33.30;18.02;;;6.30;99.90;;;;;;5044690;28;20115;-91
2022/01/27 07:39:19;;;;;;;36.40;18.60;;;6.30;99.90;;;;;;5034144;28;20038;-92
2022/01/27 07:41:45;;;;;;;34.42;19.73;;;6.30;99.90;;;;;;5054034;28;20029;-92
2022/01/27 07:44:11;;;;;;;31.95;18.77;;;6.30;99.90;;;;;;5024275;28;20041;-92
2022/01/27 07:46:36;;;;;;;30.83;17.23;;;6.30;99.90;;;;;;5035312;28;20041;-92
2022/01/27 07:49:02;;;;;;;31.17;17.83;;;6.40;99.90;;;;;;5025561;28;20033;-92
2022/01/27 07:51:28;;;;;;;28.40;15.40;;;6.40;99.90;;;;;;5038061;28;20037;-93
2022/01/27 07:53:54;;;;;;;30.02;16.25;;;6.40;99.90;;;;;;5039812;28;20048;-93
2022/01/27 07:56:19;;;;;;;25.50;14.23;;;6.40;99.90;;;;;;5038026;28;20033;-92
2022/01/27 07:58:45;;;;;;;26.58;14.52;;;6.40;99.90;;;;;;5023844;28;20048;-93
2022/01/27 08:01:10;;;;;;;26.85;15.02;;;6.40;99.90;;;;;;5040611;28;20121;-91
2022/01/27 08:03:37;;;;;;;22.65;13.18;;;6.50;99.90;;;;;;5022762;28;20041;-93
2022/01/27 08:06:07;;;;;;;21.52;11.93;;;6.50;99.90;;;;;;5037778;28;20041;-92
2022/01/27 08:08:34;;;;;;;25.05;13.35;;;6.50;99.90;;;;;;5023750;28;20566;-93
2022/01/27 08:11:00;;;;;;;21.60;12.63;;;6.50;99.90;;;;;;5037866;28;20084;-93
2022/01/27 08:13:26;;;;;;;18.73;11.45;;;6.60;99.90;;;;;;5022165;28;20041;-93
2022/01/27 08:15:52;;;;;;;22.60;12.98;;;6.60;99.90;;;;;;5022816;28;20044;-93
2022/01/27 08:18:18;;;;;;;24.50;13.68;;;6.70;99.90;;;;;;5044694;28;20037;-92
2022/01/27 08:20:46;;;;;;;22.92;12.63;;;6.70;99.90;;;;;;5036481;28;20040;-93
2022/01/27 08:23:14;;;;;;;22.05;12.75;;;6.70;99.90;;;;;;5036980;28;20037;-92
2022/01/27 08:25:39;;;;;;;21.02;12.57;;;6.70;99.90;;;;;;5039535;28;20041;-92
2022/01/27 08:28:15;;;;;;;24.33;13.30;;;6.70;99.90;;;;;;5018849;28;20128;-92
2022/01/27 08:30:46;;;;;;;23.02;14.43;;;6.80;99.90;;;;;;5035604;28;20041;-92
2022/01/27 08:33:16;;;;;;;29.75;15.55;;;6.80;99.90;;;;;;5020070;28;20136;-93
2022/01/27 08:35:42;;;;;;;26.75;15.48;;;6.80;99.90;;;;;;5034661;28;20123;-94
2022/01/27 08:38:08;;;;;;;32.03;16.67;;;6.80;99.90;;;;;;5019769;28;20049;-92
2022/01/27 08:40:34;;;;;;;31.40;17.08;;;6.90;99.90;;;;;;5019194;28;20041;-92
2022/01/27 08:43:00;;;;;;;33.53;17.27;;;6.90;99.90;;;;;;5033663;28;20080;-93
2022/01/27 08:45:26;;;;;;;29.42;16.77;;;6.90;99.90;;;;;;5019111;28;20038;-93
2022/01/27 08:47:55;;;;;;;31.73;16.50;;;6.90;99.90;;;;;;5036336;28;20040;-93
2022/01/27 08:50:22;;;;;;;32.40;18.20;;;7.00;99.90;;;;;;5038147;28;20041;-92
2022/01/27 08:52:48;;;;;;;34.50;19.10;;;6.90;99.90;;;;;;5021380;28;20480;-92
2022/01/27 08:55:14;;;;;;;36.58;19.13;;;6.90;99.90;;;;;;5021493;28;20052;-93
2022/01/27 08:57:40;;;;;;;34.83;16.50;;;7.00;99.90;;;;;;5038717;28;20052;-94
2022/01/27 09:00:11;;;;;;;29.25;17.83;;;7.00;99.90;;;;;;5018771;28;20045;-92
2022/01/27 09:02:37;;;;;;;31.23;17.20;;;7.00;99.90;;;;;;5019634;28;20095;-92
2022/01/27 09:05:03;;;;;;;32.72;17.85;;;7.00;99.90;;;;;;5041176;28;20037;-94
2022/01/27 09:07:29;;;;;;;30.85;18.15;;;7.00;99.90;;;;;;5035599;28;20434;-94
2022/01/27 09:09:55;;;;;;;31.88;16.15;;;7.10;99.90;;;;;;5017416;28;20045;-91
2022/01/27 09:12:21;;;;;;;31.33;15.80;;;7.10;99.90;;;;;;5018095;28;20044;-93
2022/01/27 09:14:46;;;;;;;35.63;18.65;;;7.20;99.90;;;;;;5037273;28;20064;-92
2022/01/27 09:17:14;;;;;;;32.97;16.92;;;7.20;99.90;;;;;;5019733;28;20407;-93
2022/01/27 09:19:42;;;;;;;37.40;17.98;;;7.20;99.90;;;;;;5016686;28;20051;-92
2022/01/27 09:22:13;;;;;;;31.42;16.52;;;7.30;99.90;;;;;;5035143;28;20038;-94
2022/01/27 09:24:50;;;;;;;38.08;16.67;;;7.30;99.90;;;;;;5032006;28;20105;-93
2022/01/27 09:27:17;;;;;;;34.58;15.55;;;7.40;99.90;;;;;;5037196;28;20033;-93
2022/01/27 09:29:43;;;;;;;30.70;14.60;;;7.40;99.90;;;;;;5035056;28;20049;-94
2022/01/27 09:32:09;;;;;;;33.78;15.10;;;7.50;99.90;;;;;;5034036;28;20519;-93
2022/01/27 09:34:36;;;;;;;31.30;13.82;;;7.60;99.90;;;;;;5036901;28;20051;-93
2022/01/27 09:37:03;;;;;;;29.75;14.80;;;7.60;99.90;;;;;;5026321;28;20048;-93
2022/01/27 09:39:33;;;;;;;29.83;14.80;;;7.60;99.90;;;;;;5016587;28;20048;-93
2022/01/27 09:42:01;;;;;;;29.77;13.43;;;7.70;99.90;;;;;;5033704;28;20042;-92
2022/01/27 09:44:30;;;;;;;30.40;15.48;;;7.70;99.90;;;;;;5034671;28;20048;-93
2022/01/27 09:47:08;;;;;;;27.90;12.45;;;7.80;99.90;;;;;;5019717;28;20443;-91
2022/01/27 09:49:42;;;;;;;23.92;11.48;;;7.80;99.90;;;;;;5051336;28;20040;-92
2022/01/27 09:52:07;;;;;;;29.75;12.60;;;7.80;99.90;;;;;;5057810;28;20037;-93
2022/01/27 09:54:34;;;;;;;25.58;11.45;;;7.90;99.90;;;;;;5040409;28;20037;-92
2022/01/27 09:57:01;;;;;;;26.48;12.27;;;8.00;99.90;;;;;;5041508;28;20170;-93
2022/01/27 09:59:26;;;;;;;27.83;11.45;;;8.00;99.90;;;;;;5058606;28;20041;-93
2022/01/27 10:02:09;;;;;;;26.67;10.68;;;8.10;99.90;;;;;;5056831;28;20043;-93
2022/01/27 10:04:52;;;;;;;23.80;10.38;;;8.20;99.90;;;;;;5038656;28;20571;-93
2022/01/27 10:07:26;;;;;;;27.08;11.43;;;8.20;99.90;;;;;;5059179;28;20118;-93
2022/01/27 10:10:04;;;;;;;25.13;10.80;;;8.20;99.90;;;;;;5056882;28;20101;-93
2022/01/27 10:12:39;;;;;;;23.33;9.73;;;8.20;99.90;;;;;;5054265;28;20082;-91
2022/01/27 10:15:18;;;;;;;20.65;8.55;;;8.20;99.90;;;;;;5057817;28;20131;-93
2022/01/27 10:18:07;;;;;;;20.50;7.93;;;8.30;99.90;;;;;;5040543;28;20044;-93
2022/01/27 10:20:38;;;;;;;21.70;8.48;;;8.30;99.90;;;;;;5040034;28;20499;-92
2022/01/27 10:23:24;;;;;;;20.25;7.93;;;8.30;99.90;;;;;;5039025;28;20063;-92
2022/01/27 10:25:55;;;;;;;21.17;9.13;;;8.40;99.90;;;;;;5040037;28;20041;-93
2022/01/27 10:28:32;;;;;;;24.40;8.95;;;8.40;99.90;;;;;;5057257;28;20033;-92
2022/01/27 10:31:05;;;;;;;23.88;9.88;;;8.40;99.90;;;;;;5041620;28;20071;-92
2022/01/27 10:34:06;;;;;;;22.05;9.45;;;8.40;99.90;;;;;;5055611;28;20041;-93
2022/01/27 10:36:39;;;;;;;25.20;8.70;;;8.50;99.90;;;;;;5054668;28;20041;-92
2022/01/27 10:39:25;;;;;;;23.10;8.60;;;8.50;99.90;;;;;;5039757;28;20047;-93
2022/01/27 10:42:07;;;;;;;23.55;8.57;;;8.50;99.90;;;;;;5055369;28;20037;-92
2022/01/27 10:44:37;;;;;;;29.25;10.00;;;8.50;99.90;;;;;;5053778;28;20398;-93
2022/01/27 10:47:17;;;;;;;24.20;8.90;;;8.50;99.90;;;;;;5056606;28;20037;-93
2022/01/27 10:49:49;;;;;;;17.98;8.55;;;8.50;99.90;;;;;;5055785;28;20041;-92
2022/01/27 10:52:37;;;;;;;24.02;8.85;;;8.50;99.90;;;;;;5054711;28;20037;-92
2022/01/27 10:55:12;;;;;;;26.50;9.05;;;8.50;99.90;;;;;;5041327;28;20041;-92
2022/01/27 10:57:38;;;;;;;20.13;8.02;;;8.50;99.90;;;;;;5043089;28;20040;-93
2022/01/27 11:00:15;;;;;;;20.73;8.23;;;8.50;99.90;;;;;;5056196;28;20044;-93
2022/01/27 11:02:53;;;;;;;18.25;8.55;;;8.50;99.90;;;;;;5038019;28;20052;-92
2022/01/27 11:05:27;;;;;;;21.95;8.95;;;8.50;99.90;;;;;;5054156;28;20212;-92
2022/01/27 11:07:53;;;;;;;19.35;8.35;;;8.50;99.90;;;;;;5057257;28;20116;-92
2022/01/27 11:10:20;;;;;;;20.48;8.27;;;8.50;99.90;;;;;;5042137;28;20056;-94
2022/01/27 11:12:46;;;;;;;23.85;8.40;;;8.40;99.90;;;;;;5058839;28;20406;-92
2022/01/27 11:15:15;;;;;;;20.55;9.80;;;8.40;99.90;;;;;;5053677;28;20048;-93
2022/01/27 11:17:42;;;;;;;21.70;8.43;;;8.40;99.90;;;;;;5056309;28;20041;-92
2022/01/27 11:27:59;;;;;;;23.48;8.50;;;8.50;99.90;;;;;;5055968;28;20395;-92
2022/01/27 11:30:31;;;;;;;23.00;8.75;;;8.40;99.90;;;;;;5035888;28;20041;-93
2022/01/27 11:33:04;;;;;;;19.17;7.13;;;8.50;99.90;;;;;;5059730;28;20124;-93
2022/01/27 11:35:31;;;;;;;22.45;7.55;;;8.50;99.90;;;;;;5042872;28;20036;-93
2022/01/27 11:38:00;;;;;;;18.27;7.15;;;8.50;99.90;;;;;;5061333;28;20045;-93
2022/01/27 11:40:45;;;;;;;23.58;7.72;;;8.60;99.90;;;;;;5061184;28;20045;-93
2022/01/27 11:43:15;;;;;;;20.05;6.72;;;8.60;99.90;;;;;;5058729;28;20032;-93
2022/01/27 11:45:45;;;;;;;17.42;6.53;;;8.70;99.90;;;;;;5058794;28;20045;-93
2022/01/27 11:48:13;;;;;;;18.20;6.32;;;8.70;99.90;;;;;;5059270;28;20033;-92
2022/01/27 11:50:47;;;;;;;19.17;6.55;;;8.80;99.90;;;;;;5058129;28;20041;-93
2022/01/27 11:53:30;;;;;;;20.58;6.63;;;8.80;99.90;;;;;;5055781;28;20517;-93
2022/01/27 11:56:05;;;;;;;17.77;5.50;;;8.80;99.90;;;;;;5057919;28;20037;-92
2022/01/27 11:58:40;;;;;;;18.13;6.00;;;8.90;99.90;;;;;;5059407;28;20096;-92
2022/01/27 12:01:11;;;;;;;19.92;5.78;;;8.90;99.90;;;;;;5058106;28;20056;-93
2022/01/27 12:04:11;;;;;;;18.45;5.03;;;8.90;99.90;;;;;;5056361;28;20045;-93
2022/01/27 12:06:49;;;;;;;18.35;5.10;;;8.90;99.90;;;;;;5055844;28;20414;-92
2022/01/27 12:09:17;;;;;;;16.23;4.13;;;9.00;99.90;;;;;;5053378;28;20094;-93
2022/01/27 12:11:56;;;;;;;18.05;5.07;;;9.00;99.90;;;;;;5055667;28;20131;-93
2022/01/27 12:14:29;;;;;;;16.35;4.50;;;9.00;99.90;;;;;;5058267;28;20041;-94
2022/01/27 12:17:07;;;;;;;17.27;4.85;;;9.10;99.90;;;;;;5053624;28;20094;-92
2022/01/27 12:19:53;;;;;;;13.07;3.95;;;9.10;99.90;;;;;;5055415;28;20047;-93
2022/01/27 12:22:20;;;;;;;17.15;4.80;;;9.20;99.90;;;;;;5054422;28;20494;-91
2022/01/27 12:25:03;;;;;;;17.63;4.38;;;9.30;99.90;;;;;;5054915;28;20118;-92
2022/01/27 12:27:30;;;;;;;18.17;4.18;;;9.40;99.90;;;;;;5052586;28;20045;-93
2022/01/27 12:29:57;;;;;;;18.58;4.22;;;9.50;99.90;;;;;;5051814;28;20069;-93
2022/01/27 12:32:29;;;;;;;17.20;3.90;;;9.50;99.90;;;;;;5053914;28;20064;-91
2022/01/27 12:34:57;;;;;;;13.23;3.67;;;9.50;99.90;;;;;;5053283;28;20128;-93
2022/01/27 12:37:34;;;;;;;19.65;4.03;;;9.50;99.90;;;;;;5054334;28;20073;-91
2022/01/27 12:40:08;;;;;;;16.73;3.67;;;9.50;99.90;;;;;;5052733;28;20043;-92
2022/01/27 12:42:39;;;;;;;19.75;4.47;;;9.50;99.90;;;;;;5052576;28;20048;-92
2022/01/27 12:45:12;;;;;;;16.30;3.50;;;9.50;99.90;;;;;;5052650;28;20037;-93
2022/01/27 12:47:43;;;;;;;15.93;3.80;;;9.50;99.90;;;;;;5053183;28;20069;-92
2022/01/27 12:50:22;;;;;;;17.95;3.72;;;9.50;99.90;;;;;;5052016;28;20048;-93
2022/01/27 12:52:52;;;;;;;19.58;3.85;;;9.60;99.90;;;;;;5051128;28;20045;-92
2022/01/27 12:55:27;;;;;;;18.45;3.65;;;9.60;99.90;;;;;;5053266;28;20044;-92
2022/01/27 12:58:01;;;;;;;19.52;4.60;;;9.60;99.90;;;;;;5052024;28;20115;-92
2022/01/27 13:00:31;;;;;;;17.52;5.28;;;9.60;99.90;;;;;;5052525;28;20044;-92
2022/01/27 13:03:01;;;;;;;18.67;4.60;;;9.70;99.90;;;;;;5068247;28;20115;-92
2022/01/27 13:05:34;;;;;;;17.92;4.13;;;9.70;99.90;;;;;;5053421;28;20029;-92
2022/01/27 13:08:08;;;;;;;19.45;4.47;;;9.70;99.90;;;;;;5048238;28;20041;-93
2022/01/27 13:10:35;;;;;;;20.88;4.40;;;9.70;99.90;;;;;;5021172;28;20087;-91
2022/01/27 13:13:14;;;;;;;17.75;4.28;;;9.80;99.90;;;;;;5030764;28;20049;-93
2022/01/27 13:15:40;;;;;;;22.27;4.47;;;9.90;99.90;;;;;;5035803;28;20069;-91
2022/01/27 13:18:28;;;;;;;17.92;4.20;;;9.90;99.90;;;;;;5051186;28;20133;-93
2022/01/27 13:20:57;;;;;;;16.17;3.55;;;9.90;99.90;;;;;;5050663;28;20102;-91
2022/01/27 13:23:29;;;;;;;19.85;4.78;;;9.90;99.90;;;;;;5051263;28;20045;-92
2022/01/27 13:26:03;;;;;;;16.75;3.67;;;9.90;99.90;;;;;;5033179;28;20063;-92
2022/01/27 13:28:33;;;;;;;16.88;4.07;;;9.90;99.90;;;;;;5034148;28;20037;-93